Time;durP1;ratioP1;P1;durP2;ratioP2;P2;SDS_P1;SDS_P2;PMS_P1;PMS_P2;Temp;Humidity;BMP_temperature;BMP_pressure;BME280_temperature;BME280_humidity;BME280_pressure;Samples;Min_cycle;Max_cycle;Signal;HPM_P1;HPM_P2
2021/12/28 00:00:30;;;;;;;11.30;3.53;;;12.80;99.90;;;;;;4994642;28;20022;-74
2021/12/28 00:02:57;;;;;;;8.10;2.13;;;12.80;99.90;;;;;;4994794;28;20045;-73
2021/12/28 00:05:24;;;;;;;11.88;3.40;;;12.80;99.90;;;;;;4994458;28;20517;-79
2021/12/28 00:07:51;;;;;;;12.52;4.50;;;12.80;99.90;;;;;;4994471;28;20026;-75
2021/12/28 00:10:18;;;;;;;7.85;2.78;;;12.80;99.90;;;;;;4994697;28;20027;-76
2021/12/28 00:12:44;;;;;;;8.65;3.33;;;12.70;99.90;;;;;;4994669;28;20022;-75
2021/12/28 00:18:01;;;;;;;7.50;1.92;;;12.70;99.90;;;;;;4994929;28;20035;-76
2021/12/28 00:20:28;;;;;;;8.23;1.90;;;12.70;99.90;;;;;;4994498;28;20030;-74
2021/12/28 00:22:54;;;;;;;7.43;2.30;;;12.70;99.90;;;;;;4993795;28;20115;-75
2021/12/28 00:25:19;;;;;;;4.97;1.30;;;12.60;99.90;;;;;;4994094;28;20106;-76
2021/12/28 00:27:45;;;;;;;6.15;1.67;;;12.60;99.90;;;;;;4994147;28;20034;-76
2021/12/28 00:30:11;;;;;;;5.47;1.58;;;12.60;99.90;;;;;;4994125;28;20026;-77
2021/12/28 00:32:37;;;;;;;9.90;1.55;;;12.60;99.90;;;;;;4994381;28;20018;-77
2021/12/28 00:35:04;;;;;;;9.52;1.55;;;12.60;99.90;;;;;;4994109;28;20390;-76
2021/12/28 00:37:30;;;;;;;8.63;1.50;;;12.60;99.90;;;;;;4994570;28;20041;-75
2021/12/28 00:39:55;;;;;;;8.77;3.05;;;12.50;99.90;;;;;;4994263;28;20022;-76
2021/12/28 00:42:21;;;;;;;11.38;2.25;;;12.50;99.90;;;;;;4993898;28;20037;-72
2021/12/28 00:44:47;;;;;;;5.43;1.45;;;12.50;99.90;;;;;;4993527;28;20050;-75
2021/12/28 00:47:13;;;;;;;5.88;1.45;;;12.50;99.90;;;;;;4993932;28;20494;-77
2021/12/28 00:49:39;;;;;;;11.80;1.73;;;12.50;99.90;;;;;;4993959;28;20025;-73
2021/12/28 00:52:05;;;;;;;11.20;2.10;;;12.50;99.90;;;;;;4993926;28;20027;-76
2021/12/28 00:54:30;;;;;;;8.50;2.22;;;12.50;99.90;;;;;;4993894;28;20122;-75
2021/12/28 00:56:56;;;;;;;6.53;1.92;;;12.50;99.90;;;;;;4992618;28;20030;-74
2021/12/28 00:59:22;;;;;;;9.52;1.77;;;12.50;99.90;;;;;;4994081;28;20057;-75
2021/12/28 01:01:47;;;;;;;7.10;2.10;;;12.50;99.90;;;;;;4993819;28;20475;-77
2021/12/28 01:04:14;;;;;;;6.95;1.98;;;12.50;99.90;;;;;;4993787;28;20081;-76
2021/12/28 01:06:39;;;;;;;9.70;1.90;;;12.50;99.90;;;;;;4993737;28;20042;-77
2021/12/28 01:09:05;;;;;;;8.55;2.22;;;12.50;99.90;;;;;;4993721;28;20471;-77
2021/12/28 01:11:31;;;;;;;9.77;2.10;;;12.40;99.90;;;;;;4994252;28;20030;-74
2021/12/28 01:13:56;;;;;;;10.85;1.77;;;12.50;99.90;;;;;;4994243;28;20070;-74
2021/12/28 01:16:22;;;;;;;8.68;2.38;;;12.40;99.90;;;;;;4993661;28;20034;-77
2021/12/28 01:18:48;;;;;;;7.18;2.30;;;12.40;99.90;;;;;;4993705;28;20057;-76
2021/12/28 01:21:14;;;;;;;10.02;2.53;;;12.40;99.90;;;;;;4993696;28;20460;-77
2021/12/28 01:23:40;;;;;;;6.40;2.13;;;12.40;99.90;;;;;;4992411;28;20038;-74
2021/12/28 01:26:05;;;;;;;11.10;2.25;;;12.40;99.90;;;;;;4993853;28;20145;-74
2021/12/28 01:28:31;;;;;;;11.45;2.65;;;12.40;99.90;;;;;;4992345;28;20022;-76
2021/12/28 01:30:57;;;;;;;10.75;2.47;;;12.40;99.90;;;;;;4993599;28;20394;-73
2021/12/28 01:33:22;;;;;;;14.98;2.80;;;12.30;99.90;;;;;;4995622;28;20545;-77
2021/12/28 01:35:50;;;;;;;11.23;2.38;;;12.30;99.90;;;;;;4997653;28;20033;-72
2021/12/28 01:38:16;;;;;;;7.57;2.42;;;12.30;99.90;;;;;;4997880;28;20081;-79
2021/12/28 01:40:42;;;;;;;6.75;1.50;;;12.30;99.90;;;;;;4997179;28;20036;-76
2021/12/28 01:43:13;;;;;;;11.73;2.80;;;12.30;99.90;;;;;;4997148;28;20048;-73
2021/12/28 01:46:00;;;;;;;7.88;1.77;;;12.30;99.90;;;;;;4997195;28;20034;-76
2021/12/28 01:48:37;;;;;;;7.97;1.88;;;12.30;99.90;;;;;;4997088;28;20101;-76
2021/12/28 01:51:07;;;;;;;13.13;2.75;;;12.30;99.90;;;;;;4997136;28;20029;-76
2021/12/28 01:53:34;;;;;;;7.13;2.22;;;12.30;99.90;;;;;;4997269;28;20099;-75
2021/12/28 01:56:08;;;;;;;9.15;2.15;;;12.30;99.90;;;;;;4997000;28;20105;-75
2021/12/28 01:58:34;;;;;;;9.45;2.50;;;12.30;99.90;;;;;;4995437;28;20122;-76
2021/12/28 02:01:00;;;;;;;9.60;2.40;;;12.30;99.90;;;;;;4997164;28;20105;-75
2021/12/28 02:03:27;;;;;;;11.57;2.70;;;12.30;99.90;;;;;;4996879;28;20022;-76
2021/12/28 02:05:53;;;;;;;10.90;2.67;;;12.30;99.90;;;;;;4996758;28;20058;-78
2021/12/28 02:08:19;;;;;;;11.27;2.97;;;12.30;99.90;;;;;;4997343;28;20110;-78
2021/12/28 02:10:47;;;;;;;11.45;2.58;;;12.30;99.90;;;;;;4997005;28;20527;-75
2021/12/28 02:13:14;;;;;;;11.68;2.45;;;12.30;99.90;;;;;;4996665;28;20471;-73
2021/12/28 02:15:40;;;;;;;9.88;2.03;;;12.30;99.90;;;;;;4996616;28;20034;-75
2021/12/28 02:18:07;;;;;;;10.73;2.60;;;12.30;99.90;;;;;;4996567;28;20037;-79
2021/12/28 02:20:35;;;;;;;10.77;2.10;;;12.30;99.90;;;;;;4996821;28;20030;-73
2021/12/28 02:23:01;;;;;;;9.65;2.40;;;12.30;99.90;;;;;;4997048;28;20030;-76
2021/12/28 02:25:27;;;;;;;13.25;2.17;;;12.40;99.90;;;;;;4996353;28;20033;-75
2021/12/28 02:27:52;;;;;;;8.88;1.95;;;12.40;99.90;;;;;;4996378;28;20047;-74
2021/12/28 02:30:20;;;;;;;10.25;2.55;;;12.50;99.90;;;;;;4996356;28;20038;-75
2021/12/28 02:32:48;;;;;;;8.35;2.00;;;12.50;99.90;;;;;;4996370;28;20025;-76
2021/12/28 02:35:20;;;;;;;8.48;1.95;;;12.50;99.90;;;;;;4996594;28;20066;-73
2021/12/28 02:37:46;;;;;;;12.73;2.05;;;12.50;99.90;;;;;;4994723;28;20399;-75
2021/12/28 02:40:16;;;;;;;10.88;2.90;;;12.50;99.90;;;;;;4994837;28;20022;-76
2021/12/28 02:42:42;;;;;;;11.50;2.10;;;12.50;99.90;;;;;;4996500;28;20034;-74
2021/12/28 02:45:12;;;;;;;11.65;2.63;;;12.50;99.90;;;;;;4994701;28;20581;-75
2021/12/28 02:47:41;;;;;;;9.07;1.73;;;12.40;99.90;;;;;;4994818;28;20018;-77
2021/12/28 02:50:12;;;;;;;9.40;2.30;;;12.40;99.90;;;;;;4996310;28;20027;-75
2021/12/28 02:52:38;;;;;;;9.63;2.47;;;12.40;99.90;;;;;;4996014;28;20093;-72
2021/12/28 02:55:11;;;;;;;11.48;2.63;;;12.40;99.90;;;;;;4994649;28;20030;-75
2021/12/28 02:57:37;;;;;;;12.70;2.90;;;12.40;99.90;;;;;;4996234;28;20030;-76
2021/12/28 03:00:05;;;;;;;11.57;3.20;;;12.40;99.90;;;;;;4995850;28;20106;-78
2021/12/28 03:02:31;;;;;;;9.20;2.20;;;12.40;99.90;;;;;;4995714;28;20034;-76
2021/12/28 03:04:57;;;;;;;12.70;2.35;;;12.40;99.90;;;;;;4996193;28;20077;-75
2021/12/28 03:07:23;;;;;;;16.25;2.55;;;12.40;99.90;;;;;;4996183;28;20037;-76
2021/12/28 03:09:49;;;;;;;11.43;2.67;;;12.40;99.90;;;;;;4996173;28;20101;-78
2021/12/28 03:12:14;;;;;;;11.38;2.70;;;12.40;99.90;;;;;;4994359;28;20558;-76
2021/12/28 03:14:40;;;;;;;13.75;3.13;;;12.40;99.90;;;;;;4995553;28;20030;-75
2021/12/28 03:17:06;;;;;;;12.68;2.15;;;12.50;99.90;;;;;;4995513;28;20475;-73
2021/12/28 03:19:34;;;;;;;8.82;1.92;;;12.50;99.90;;;;;;4995455;28;20029;-75
2021/12/28 03:21:59;;;;;;;11.68;2.78;;;12.50;99.90;;;;;;4994189;28;20026;-78
2021/12/28 03:24:26;;;;;;;10.60;2.45;;;12.50;99.90;;;;;;4995369;28;20364;-74
2021/12/28 03:26:53;;;;;;;10.38;2.50;;;12.60;99.90;;;;;;4993992;28;20026;-74
2021/12/28 03:29:20;;;;;;;14.73;2.15;;;12.50;99.90;;;;;;4993895;28;20109;-78
2021/12/28 03:31:47;;;;;;;14.07;2.65;;;12.50;99.90;;;;;;4995258;28;20542;-75
2021/12/28 03:34:13;;;;;;;11.95;2.10;;;12.60;99.90;;;;;;4995131;28;20101;-78
2021/12/28 03:36:39;;;;;;;9.23;2.28;;;12.60;99.90;;;;;;4993856;28;20394;-74
2021/12/28 03:39:05;;;;;;;11.65;1.80;;;12.60;99.90;;;;;;4995349;28;20026;-75
2021/12/28 03:41:31;;;;;;;17.38;3.67;;;12.60;99.90;;;;;;4994921;28;20026;-76
2021/12/28 03:43:58;;;;;;;9.45;1.90;;;12.60;99.90;;;;;;4994798;28;20049;-75
2021/12/28 03:46:25;;;;;;;9.25;2.25;;;12.60;99.90;;;;;;4995176;28;20027;-74
2021/12/28 03:48:51;;;;;;;12.73;2.40;;;12.60;99.90;;;;;;4995194;28;20171;-72
2021/12/28 03:51:17;;;;;;;13.00;2.25;;;12.60;99.90;;;;;;4994719;28;20022;-73
2021/12/28 03:53:47;;;;;;;10.07;2.10;;;12.60;99.90;;;;;;4994804;28;20018;-78
2021/12/28 03:56:14;;;;;;;12.40;2.10;;;12.70;99.90;;;;;;4994972;28;20105;-79
2021/12/28 03:58:41;;;;;;;8.68;2.50;;;12.70;99.90;;;;;;4994598;28;20038;-75
2021/12/28 04:01:09;;;;;;;8.07;1.92;;;12.70;99.90;;;;;;4994959;28;20037;-77
2021/12/28 04:03:34;;;;;;;9.93;2.20;;;12.70;99.90;;;;;;4995102;28;20035;-74
2021/12/28 04:06:07;;;;;;;7.20;1.75;;;12.70;99.90;;;;;;4993261;28;20517;-79
2021/12/28 04:08:34;;;;;;;8.77;1.80;;;12.60;99.90;;;;;;4994558;28;20034;-76
2021/12/28 04:11:15;;;;;;;8.02;1.92;;;12.60;99.90;;;;;;4994773;28;20022;-76
2021/12/28 04:13:44;;;;;;;7.85;1.50;;;12.60;99.90;;;;;;4994495;28;20018;-75
2021/12/28 04:16:11;;;;;;;8.48;1.52;;;12.60;99.90;;;;;;4994413;28;20053;-76
2021/12/28 04:18:37;;;;;;;7.93;1.73;;;12.60;99.90;;;;;;4994650;28;20037;-73
2021/12/28 04:21:02;;;;;;;10.20;1.85;;;12.60;99.90;;;;;;4994344;28;20097;-76
2021/12/28 04:23:28;;;;;;;3.67;1.13;;;12.60;99.90;;;;;;4994293;28;20105;-77
2021/12/28 04:25:54;;;;;;;6.72;1.35;;;12.50;99.90;;;;;;4994198;28;20390;-77
2021/12/28 04:28:20;;;;;;;3.25;0.77;;;12.50;99.90;;;;;;4994236;28;20073;-76
2021/12/28 04:30:45;;;;;;;5.68;1.13;;;12.50;99.90;;;;;;4994452;28;20097;-76
2021/12/28 04:33:11;;;;;;;5.03;1.05;;;12.50;99.90;;;;;;4994121;28;20040;-75
2021/12/28 04:35:37;;;;;;;5.05;0.95;;;12.50;99.90;;;;;;4994112;28;20029;-74
2021/12/28 04:38:02;;;;;;;4.63;1.13;;;12.50;99.90;;;;;;4994386;28;20050;-75
2021/12/28 04:40:28;;;;;;;7.68;1.20;;;12.50;99.90;;;;;;4993952;28;20030;-79
2021/12/28 04:42:54;;;;;;;3.50;0.60;;;12.60;99.90;;;;;;4994074;28;20073;-77
2021/12/28 04:45:20;;;;;;;2.65;0.88;;;12.60;99.90;;;;;;4993800;28;20046;-75
2021/12/28 04:47:45;;;;;;;7.20;0.93;;;12.60;99.90;;;;;;4993938;28;20033;-75
2021/12/28 04:50:12;;;;;;;2.28;0.70;;;12.60;99.90;;;;;;4993915;28;20061;-77
2021/12/28 04:52:39;;;;;;;3.55;0.80;;;12.60;99.90;;;;;;4993977;28;20026;-77
2021/12/28 04:55:10;;;;;;;4.40;0.85;;;12.70;99.90;;;;;;4993890;28;20026;-72
2021/12/28 04:57:35;;;;;;;1.40;0.65;;;12.70;99.90;;;;;;4994216;28;20030;-76
2021/12/28 05:00:04;;;;;;;9.70;1.50;;;12.70;99.90;;;;;;4994414;28;20030;-75
2021/12/28 05:02:30;;;;;;;6.53;1.20;;;12.80;99.90;;;;;;4993784;28;20080;-74
2021/12/28 05:04:55;;;;;;;6.50;1.50;;;12.80;99.90;;;;;;4993794;28;20528;-75
2021/12/28 05:07:21;;;;;;;7.75;1.33;;;12.80;99.90;;;;;;4993934;28;20157;-75
2021/12/28 05:09:47;;;;;;;11.95;2.38;;;12.80;99.90;;;;;;4997857;28;20026;-74
2021/12/28 05:12:13;;;;;;;11.43;1.90;;;12.80;99.90;;;;;;4997817;28;20026;-75
2021/12/28 05:14:41;;;;;;;11.63;2.35;;;12.90;99.90;;;;;;4997805;28;20093;-76
2021/12/28 05:17:07;;;;;;;17.15;3.25;;;12.90;99.90;;;;;;4997682;28;20145;-74
2021/12/28 05:19:33;;;;;;;19.33;3.72;;;12.80;99.90;;;;;;4997656;28;20093;-74
2021/12/28 05:21:59;;;;;;;21.17;4.35;;;12.80;99.90;;;;;;4997905;28;20109;-73
2021/12/28 05:24:25;;;;;;;16.20;3.13;;;12.80;99.90;;;;;;4997564;28;20109;-74
2021/12/28 05:26:50;;;;;;;23.77;4.60;;;12.80;99.90;;;;;;4997758;28;20030;-76
2021/12/28 05:29:16;;;;;;;23.77;4.38;;;12.80;99.90;;;;;;4997774;28;20037;-76
2021/12/28 05:31:41;;;;;;;25.35;4.90;;;12.80;99.90;;;;;;4997712;28;20102;-74
2021/12/28 05:34:08;;;;;;;20.30;4.47;;;12.80;99.90;;;;;;4997412;28;20081;-73
2021/12/28 05:36:34;;;;;;;23.80;4.95;;;12.80;99.90;;;;;;4996079;28;20479;-73
2021/12/28 05:39:00;;;;;;;26.58;4.93;;;12.90;99.90;;;;;;4997325;28;20022;-77
2021/12/28 05:41:26;;;;;;;21.23;4.85;;;12.80;99.90;;;;;;4997292;28;20057;-77
2021/12/28 05:43:51;;;;;;;27.98;4.78;;;12.80;99.90;;;;;;4997209;28;20054;-74
2021/12/28 05:46:17;;;;;;;19.90;4.88;;;12.80;99.90;;;;;;4997114;28;20070;-78
2021/12/28 05:48:43;;;;;;;24.65;5.55;;;12.80;99.90;;;;;;4997116;28;20015;-73
2021/12/28 05:51:09;;;;;;;25.30;5.43;;;12.80;99.90;;;;;;4997388;28;20038;-78
2021/12/28 05:53:35;;;;;;;23.48;4.55;;;12.80;99.90;;;;;;4997335;28;20130;-76
2021/12/28 05:56:01;;;;;;;30.95;5.70;;;12.80;99.90;;;;;;4997486;28;20041;-75
2021/12/28 05:58:26;;;;;;;38.53;6.20;;;12.80;99.90;;;;;;4997235;28;20054;-75
2021/12/28 06:00:52;;;;;;;28.58;6.00;;;12.80;99.90;;;;;;4996889;28;20439;-76
2021/12/28 06:03:18;;;;;;;28.55;5.90;;;12.80;99.90;;;;;;4996891;28;20050;-76
2021/12/28 06:05:44;;;;;;;26.38;4.93;;;12.80;99.90;;;;;;4996742;28;20080;-75
2021/12/28 06:08:09;;;;;;;27.55;5.07;;;12.80;99.90;;;;;;4996774;28;20030;-76
2021/12/28 06:10:35;;;;;;;29.48;4.95;;;12.80;99.90;;;;;;4996728;28;20089;-79
2021/12/28 06:13:00;;;;;;;26.13;5.75;;;12.80;99.90;;;;;;4996722;28;20034;-78
2021/12/28 06:15:26;;;;;;;29.45;6.05;;;12.80;99.90;;;;;;4996899;28;20030;-76
2021/12/28 06:17:52;;;;;;;27.35;5.80;;;12.80;99.90;;;;;;4995342;28;20486;-74
2021/12/28 06:20:17;;;;;;;25.85;6.25;;;12.80;99.90;;;;;;4995217;28;20027;-74
2021/12/28 06:22:43;;;;;;;29.77;5.75;;;12.80;99.90;;;;;;4996520;28;20483;-77
2021/12/28 06:25:09;;;;;;;30.85;6.90;;;12.80;99.90;;;;;;4996682;28;20030;-75
2021/12/28 06:27:34;;;;;;;28.25;6.22;;;12.80;99.90;;;;;;4996402;28;20501;-77
2021/12/28 06:30:00;;;;;;;25.35;6.60;;;12.80;99.90;;;;;;4996377;28;20027;-76
2021/12/28 06:32:26;;;;;;;35.88;8.13;;;12.70;99.90;;;;;;4996344;28;20026;-76
2021/12/28 06:34:51;;;;;;;25.55;6.20;;;12.70;99.90;;;;;;4996574;28;20030;-75
2021/12/28 06:37:17;;;;;;;29.88;6.68;;;12.70;99.90;;;;;;4996538;28;20026;-76
2021/12/28 06:39:43;;;;;;;36.65;7.35;;;12.70;99.90;;;;;;4996482;28;20490;-74
2021/12/28 06:42:08;;;;;;;21.50;4.90;;;12.70;99.90;;;;;;4996095;28;20015;-77
2021/12/28 06:44:34;;;;;;;29.48;5.53;;;12.70;99.90;;;;;;4994587;28;20042;-76
2021/12/28 06:47:00;;;;;;;29.15;6.93;;;12.70;99.90;;;;;;4996081;28;20023;-74
2021/12/28 06:49:25;;;;;;;32.97;7.28;;;12.70;99.90;;;;;;4996025;28;20040;-75
2021/12/28 06:51:51;;;;;;;29.55;5.60;;;12.60;99.90;;;;;;4995982;28;20026;-75
2021/12/28 06:54:16;;;;;;;27.33;7.68;;;12.60;99.90;;;;;;4996008;28;20026;-75
2021/12/28 06:56:42;;;;;;;27.73;5.68;;;12.60;99.90;;;;;;4996192;28;20355;-79
2021/12/28 06:59:08;;;;;;;28.70;6.30;;;12.50;99.90;;;;;;4995912;28;20476;-78
2021/12/28 07:01:34;;;;;;;34.47;7.13;;;12.50;99.90;;;;;;4995821;28;20109;-76
2021/12/28 07:04:00;;;;;;;31.80;6.65;;;12.50;99.90;;;;;;4995837;28;20109;-74
2021/12/28 07:06:27;;;;;;;28.20;5.63;;;12.40;99.90;;;;;;4995616;28;20050;-75
2021/12/28 07:08:53;;;;;;;30.88;7.57;;;12.40;99.90;;;;;;4995678;28;20027;-77
2021/12/28 07:11:19;;;;;;;26.13;6.72;;;12.40;99.90;;;;;;4995654;28;20081;-78
2021/12/28 07:13:46;;;;;;;31.27;7.63;;;12.40;99.90;;;;;;4995900;28;20018;-75
2021/12/28 07:16:13;;;;;;;41.45;8.35;;;12.40;99.90;;;;;;4995807;28;20133;-77
2021/12/28 07:18:38;;;;;;;37.40;6.68;;;12.40;99.90;;;;;;4995537;28;20093;-78
2021/12/28 07:21:04;;;;;;;25.70;6.40;;;12.40;99.90;;;;;;4996005;28;20114;-76
2021/12/28 07:23:31;;;;;;;36.65;6.65;;;12.40;99.90;;;;;;4995390;28;20031;-76
2021/12/28 07:25:56;;;;;;;28.05;6.88;;;12.40;99.90;;;;;;4995323;28;20442;-79
2021/12/28 07:28:23;;;;;;;34.88;6.93;;;12.40;99.90;;;;;;4995336;28;20050;-76
2021/12/28 07:30:50;;;;;;;33.13;7.97;;;12.30;99.90;;;;;;4994852;28;20033;-77
2021/12/28 07:33:15;;;;;;;37.13;7.55;;;12.40;99.90;;;;;;4995515;28;20072;-76
2021/12/28 07:35:41;;;;;;;27.77;6.40;;;12.40;99.90;;;;;;4995162;28;20022;-76
2021/12/28 07:38:07;;;;;;;32.65;7.50;;;12.30;99.90;;;;;;4995105;28;20391;-75
2021/12/28 07:40:33;;;;;;;35.05;8.52;;;12.30;99.90;;;;;;4994974;28;20029;-74
2021/12/28 07:42:59;;;;;;;30.90;7.35;;;12.30;99.90;;;;;;4994844;28;20030;-75
2021/12/28 07:45:25;;;;;;;30.42;7.65;;;12.30;99.90;;;;;;4993608;28;20030;-77
2021/12/28 07:47:51;;;;;;;33.55;7.60;;;12.30;99.90;;;;;;4994974;28;20023;-73
2021/12/28 07:50:18;;;;;;;34.92;6.82;;;12.30;99.90;;;;;;4995124;28;20030;-74
2021/12/28 07:52:45;;;;;;;30.08;7.20;;;12.30;99.90;;;;;;4994835;28;20026;-77
2021/12/28 07:55:11;;;;;;;41.75;8.48;;;12.30;99.90;;;;;;4994811;28;20069;-74
2021/12/28 07:57:38;;;;;;;33.25;6.65;;;12.30;99.90;;;;;;4995021;28;20026;-73
2021/12/28 08:00:11;;;;;;;37.58;7.05;;;12.30;99.90;;;;;;4994996;28;20026;-75
2021/12/28 08:02:37;;;;;;;33.15;6.60;;;12.30;99.90;;;;;;4995778;28;20034;-74
2021/12/28 08:05:02;;;;;;;30.75;7.53;;;12.30;99.90;;;;;;4994583;28;20479;-76
2021/12/28 08:07:28;;;;;;;31.45;6.90;;;12.30;99.90;;;;;;4994792;28;20077;-78
2021/12/28 08:09:54;;;;;;;33.13;7.32;;;12.30;99.90;;;;;;4994558;28;20475;-77
2021/12/28 08:12:19;;;;;;;35.35;7.13;;;12.20;99.90;;;;;;4994520;28;20486;-73
2021/12/28 08:14:45;;;;;;;31.20;7.65;;;12.30;99.90;;;;;;4994991;28;20455;-75
2021/12/28 08:17:11;;;;;;;32.28;6.55;;;12.30;99.90;;;;;;4994659;28;20034;-78
2021/12/28 08:19:37;;;;;;;31.52;6.22;;;12.30;99.90;;;;;;4994396;28;20033;-78
2021/12/28 08:22:04;;;;;;;30.80;7.15;;;12.30;99.90;;;;;;4994288;28;20023;-75
2021/12/28 08:24:29;;;;;;;30.98;6.68;;;12.30;99.90;;;;;;4994593;28;20025;-75
2021/12/28 08:26:55;;;;;;;29.85;6.85;;;12.30;99.90;;;;;;4994477;28;20034;-75
2021/12/28 08:29:20;;;;;;;32.58;6.53;;;12.30;99.90;;;;;;4994523;28;20034;-75
2021/12/28 08:31:46;;;;;;;32.50;7.28;;;12.20;99.90;;;;;;4994187;28;20030;-74
2021/12/28 08:34:12;;;;;;;34.97;8.02;;;12.20;99.90;;;;;;4994160;28;20080;-75
2021/12/28 08:36:38;;;;;;;29.33;6.25;;;12.30;99.90;;;;;;4994093;28;20038;-77
2021/12/28 08:39:04;;;;;;;34.13;6.53;;;12.20;99.90;;;;;;4994089;28;20033;-76
2021/12/28 08:41:30;;;;;;;32.35;6.78;;;12.20;99.90;;;;;;4994521;28;20459;-75
2021/12/28 08:43:55;;;;;;;33.88;6.78;;;12.20;99.90;;;;;;4993311;28;20097;-76
2021/12/28 08:46:21;;;;;;;29.63;6.68;;;12.20;99.90;;;;;;4992547;28;20038;-79
2021/12/28 08:48:47;;;;;;;30.58;6.90;;;12.20;99.90;;;;;;4993987;28;20046;-78
2021/12/28 08:51:13;;;;;;;29.98;6.53;;;12.20;99.90;;;;;;4994010;28;20492;-75
2021/12/28 08:53:39;;;;;;;27.92;5.72;;;12.20;99.90;;;;;;4994015;28;20086;-78
2021/12/28 08:56:05;;;;;;;36.67;6.68;;;12.20;99.90;;;;;;4993926;28;20520;-76
2021/12/28 08:58:31;;;;;;;32.38;5.82;;;12.30;99.90;;;;;;4993895;28;20049;-77
2021/12/28 09:00:56;;;;;;;31.85;6.63;;;12.30;99.90;;;;;;4993845;28;20470;-74
2021/12/28 09:03:22;;;;;;;27.02;7.40;;;12.20;99.90;;;;;;4994117;28;20497;-77
2021/12/28 09:05:48;;;;;;;27.67;6.95;;;12.30;99.90;;;;;;4993991;28;20030;-74
2021/12/28 09:08:17;;;;;;;32.95;6.85;;;12.30;99.90;;;;;;4994330;28;20030;-75
2021/12/28 09:10:43;;;;;;;31.10;7.30;;;12.30;99.90;;;;;;4994015;28;20033;-76
2021/12/28 09:13:09;;;;;;;33.70;6.80;;;12.30;99.90;;;;;;4993741;28;20089;-77
2021/12/28 09:15:36;;;;;;;35.22;7.22;;;12.30;99.90;;;;;;4994251;28;20360;-74
2021/12/28 09:18:03;;;;;;;37.85;8.43;;;12.40;99.90;;;;;;4992434;28;20032;-77
2021/12/28 09:20:28;;;;;;;33.78;7.60;;;12.40;99.90;;;;;;4993028;28;20035;-74
2021/12/28 09:22:56;;;;;;;29.63;6.60;;;12.40;99.90;;;;;;4993695;28;20447;-74
2021/12/28 09:25:23;;;;;;;30.30;6.40;;;12.40;99.90;;;;;;4993835;28;20041;-76
2021/12/28 09:27:49;;;;;;;28.20;6.60;;;12.40;99.90;;;;;;4993946;28;20026;-74
2021/12/28 09:30:16;;;;;;;24.23;7.03;;;12.50;99.90;;;;;;4993649;28;20014;-74
2021/12/28 09:32:42;;;;;;;44.83;7.25;;;12.50;99.90;;;;;;4993434;28;20073;-76
2021/12/28 09:35:09;;;;;;;26.88;6.10;;;12.50;99.90;;;;;;4993578;28;20436;-78
2021/12/28 09:37:35;;;;;;;36.13;7.82;;;12.50;99.90;;;;;;4993583;28;20022;-77
2021/12/28 09:40:03;;;;;;;30.58;7.78;;;12.50;99.90;;;;;;4993419;28;20106;-78
2021/12/28 09:42:30;;;;;;;31.95;6.60;;;12.60;99.90;;;;;;4993120;28;20104;-74
2021/12/28 09:44:55;;;;;;;42.60;8.18;;;12.60;99.90;;;;;;4993117;28;20046;-74
2021/12/28 09:47:21;;;;;;;34.50;6.43;;;12.70;99.90;;;;;;4993699;28;20026;-73
2021/12/28 09:49:49;;;;;;;27.60;7.88;;;12.70;99.90;;;;;;4993673;28;20027;-76
2021/12/28 09:52:15;;;;;;;31.13;7.40;;;12.70;99.90;;;;;;4992158;28;20406;-74
2021/12/28 09:54:41;;;;;;;37.75;7.57;;;12.70;99.90;;;;;;4995590;28;20261;-76
2021/12/28 09:57:07;;;;;;;37.25;7.88;;;12.70;99.90;;;;;;4996963;28;20111;-75
2021/12/28 09:59:33;;;;;;;34.60;7.03;;;12.70;99.90;;;;;;4996918;28;20515;-74
2021/12/28 10:02:06;;;;;;;30.45;7.88;;;12.80;99.90;;;;;;4996976;28;20022;-77
2021/12/28 10:04:32;;;;;;;36.92;7.60;;;12.80;99.90;;;;;;4995381;28;20069;-74
2021/12/28 10:07:31;;;;;;;33.67;8.00;;;12.80;99.90;;;;;;4996726;28;20050;-75
2021/12/28 10:09:57;;;;;;;31.08;6.75;;;12.80;99.90;;;;;;4964152;28;20038;-75
2021/12/28 10:12:52;;;;;;;39.72;8.38;;;12.80;99.90;;;;;;4995477;28;20023;-77
2021/12/28 10:15:21;;;;;;;38.15;7.85;;;12.80;99.90;;;;;;4995331;28;20046;-76
2021/12/28 10:17:52;;;;;;;30.98;6.95;;;12.80;99.90;;;;;;4996945;28;20037;-74
2021/12/28 10:20:29;;;;;;;32.88;7.38;;;12.80;99.90;;;;;;4997254;28;20061;-76
2021/12/28 10:22:59;;;;;;;31.52;6.80;;;12.80;99.90;;;;;;4996855;28;20026;-73
2021/12/28 10:25:30;;;;;;;31.77;7.82;;;12.90;99.90;;;;;;4996672;28;20073;-76
2021/12/28 10:27:59;;;;;;;35.53;7.25;;;12.90;99.90;;;;;;4996451;28;20030;-78
2021/12/28 10:30:28;;;;;;;28.17;6.70;;;13.00;99.90;;;;;;4996438;28;20038;-76
2021/12/28 10:32:57;;;;;;;38.63;7.03;;;12.90;99.90;;;;;;4996362;28;20023;-78
2021/12/28 10:35:26;;;;;;;31.13;7.63;;;13.00;99.90;;;;;;4996344;28;20030;-75
2021/12/28 10:37:57;;;;;;;35.30;7.63;;;13.10;99.90;;;;;;4996297;28;20038;-77
2021/12/28 10:40:25;;;;;;;32.38;7.07;;;13.00;99.90;;;;;;4996518;28;20098;-77
2021/12/28 10:43:10;;;;;;;37.75;7.57;;;13.00;99.90;;;;;;4996428;28;20157;-76
2021/12/28 10:45:45;;;;;;;25.35;7.93;;;13.00;99.90;;;;;;4995200;28;20562;-75
2021/12/28 10:48:20;;;;;;;37.72;8.43;;;13.00;99.90;;;;;;4996139;28;20391;-76
2021/12/28 10:50:54;;;;;;;33.13;8.05;;;13.10;99.90;;;;;;4994544;28;20069;-73
2021/12/28 10:53:33;;;;;;;30.08;7.15;;;13.10;99.90;;;;;;4996322;28;20150;-77
2021/12/28 10:56:00;;;;;;;26.08;7.45;;;13.10;99.90;;;;;;4996295;28;20532;-73
2021/12/28 10:58:52;;;;;;;28.70;6.93;;;13.10;99.90;;;;;;4995853;28;20065;-76
2021/12/28 11:01:23;;;;;;;34.55;7.93;;;13.10;99.90;;;;;;4994130;28;20505;-76
2021/12/28 11:03:55;;;;;;;30.60;7.32;;;13.10;99.90;;;;;;4995888;28;20027;-75
2021/12/28 11:06:29;;;;;;;26.27;7.32;;;13.10;99.90;;;;;;4993428;28;20034;-75
2021/12/28 11:09:09;;;;;;;30.60;6.65;;;13.10;99.90;;;;;;4994437;28;20030;-77
2021/12/28 11:11:36;;;;;;;26.45;7.65;;;13.10;99.90;;;;;;4995967;28;20029;-76
2021/12/28 11:14:07;;;;;;;27.60;7.18;;;13.10;99.90;;;;;;4995619;28;20427;-76
2021/12/28 11:16:33;;;;;;;28.52;7.82;;;13.10;99.90;;;;;;4995609;28;20028;-73
2021/12/28 11:19:05;;;;;;;37.50;7.18;;;13.10;99.90;;;;;;4995440;28;20105;-77
2021/12/28 11:21:37;;;;;;;25.02;7.18;;;13.20;99.90;;;;;;4995532;28;20022;-76
2021/12/28 11:24:15;;;;;;;33.55;6.75;;;13.20;99.90;;;;;;4995972;28;20478;-74
2021/12/28 11:26:46;;;;;;;30.48;5.68;;;13.20;99.90;;;;;;4995653;28;20022;-75
2021/12/28 11:29:15;;;;;;;26.42;5.50;;;13.30;99.90;;;;;;4995603;28;20474;-73
2021/12/28 11:31:52;;;;;;;30.75;6.75;;;13.30;99.90;;;;;;4994331;28;20019;-74
2021/12/28 11:34:36;;;;;;;28.77;5.65;;;13.40;99.90;;;;;;4995534;28;20395;-76
2021/12/28 11:37:08;;;;;;;32.92;6.25;;;13.40;99.90;;;;;;4995775;28;20054;-78
2021/12/28 11:39:35;;;;;;;28.33;8.73;;;13.30;99.90;;;;;;4995151;28;20037;-76
2021/12/28 11:42:02;;;;;;;30.40;7.28;;;13.30;99.90;;;;;;4995053;28;20019;-75
2021/12/28 11:44:29;;;;;;;28.45;7.78;;;13.30;99.90;;;;;;4993558;28;20049;-75
2021/12/28 11:46:58;;;;;;;30.05;6.97;;;13.30;99.90;;;;;;4993712;28;20030;-76
2021/12/28 11:49:28;;;;;;;39.80;9.27;;;13.30;99.90;;;;;;4995210;28;20458;-73
2021/12/28 11:51:58;;;;;;;29.42;6.55;;;13.20;99.90;;;;;;4993680;28;20023;-74
2021/12/28 11:54:25;;;;;;;30.35;8.50;;;13.20;99.90;;;;;;4995186;28;20034;-73
2021/12/28 11:56:59;;;;;;;35.30;8.18;;;13.20;99.90;;;;;;4995365;28;20144;-75
2021/12/28 11:59:28;;;;;;;33.20;9.15;;;13.20;99.90;;;;;;4994788;28;20027;-74
2021/12/28 12:01:57;;;;;;;36.65;9.68;;;13.30;99.90;;;;;;4994670;28;20502;-76
2021/12/28 12:04:32;;;;;;;35.53;7.50;;;13.30;99.90;;;;;;4994918;28;20035;-77
2021/12/28 12:06:58;;;;;;;32.83;6.97;;;13.30;99.90;;;;;;4993289;28;20056;-78
2021/12/28 12:09:25;;;;;;;33.08;7.88;;;13.20;99.90;;;;;;4994560;28;20105;-77
2021/12/28 12:12:10;;;;;;;33.10;7.28;;;13.20;99.90;;;;;;4993243;28;20513;-76
2021/12/28 12:15:00;;;;;;;25.55;6.60;;;13.30;99.90;;;;;;4994757;28;20027;-77
2021/12/28 12:17:37;;;;;;;31.25;7.95;;;13.40;99.90;;;;;;4993055;28;20026;-75
2021/12/28 12:20:25;;;;;;;29.90;6.72;;;13.50;99.90;;;;;;4994420;28;20050;-73
2021/12/28 12:23:18;;;;;;;32.17;6.70;;;13.60;99.90;;;;;;4994650;28;20061;-77
2021/12/28 12:25:57;;;;;;;30.73;7.35;;;13.70;99.90;;;;;;4992708;28;20034;-75
2021/12/28 12:28:47;;;;;;;32.22;8.15;;;13.80;99.90;;;;;;4994323;28;20069;-76
2021/12/28 12:31:35;;;;;;;24.80;6.13;;;13.90;99.90;;;;;;4994280;28;20394;-77
2021/12/28 12:34:04;;;;;;;26.60;6.88;;;13.90;99.90;;;;;;4992562;28;20026;-75
2021/12/28 12:36:33;;;;;;;25.52;5.70;;;13.80;99.90;;;;;;4992907;28;20399;-78
2021/12/28 12:38:59;;;;;;;32.47;6.05;;;13.80;99.90;;;;;;4992873;28;20056;-73
2021/12/28 12:41:45;;;;;;;23.23;5.43;;;13.80;99.90;;;;;;4993977;28;20033;-75
2021/12/28 12:44:23;;;;;;;24.02;6.25;;;13.80;99.90;;;;;;4993895;28;20046;-75